ソウル/仁川 の空港の天気 - METARとTAF

仁川国際空港 ( RKSI / ICN ) - 韓国 仁川広域市 (ソウル特別市近郊)
飛行場実況気象(Metar)
観測時間01/19 20:00 KST (01/19 11:00 UTC)
風向・風速北西 2m/s
視程6000m
天気現象
全天の8割程度の雲 雲底高度 1220m
気温4℃
湿度75%
気圧1019hPa
METARRKSI 191100Z 31003KT 6000 BKN040 04/00 Q1019 NOSIG
過去の天気等 Google飛行場航空写真 Wunderground天気予報

過去48時間のMETAR

飛行場予報(TAF)
発表時間: 1/19 14:00 KST (1/19 05:00 UTC)
予報対象時間: 19日15時 KST ~ 20日21時 KST
風向・風速南 4m/s
視程6000m
全天の4割程度の雲 雲底高度 910m
全天の8割程度の雲 雲底高度 3660m
19日17時 KST ~ 19日18時 KST に徐々に
視程4200m
天気現象煙霧
全天の8割程度の雲 雲底高度 910m
19日20時 KST ~ 19日21時 KST に徐々に
風向・風速南西 4m/s
視程2500m
天気現象もや
20日0時 KST ~ 20日1時 KST に徐々に
風向・風速北西 8m/s 瞬間風速 13m/s
視程6000m
天気現象運行に影響にある天気現象が終了
なし
20日7時 KST ~ 20日8時 KST に徐々に
風向・風速北西 10m/s 瞬間風速 18m/s
視程10km以上
なし
20日19時 KST ~ 20日20時 KST に徐々に
風向・風速北西 8m/s 瞬間風速 13m/s
TAF RKSI 190500Z 1906/2012 19008KT 6000 SCT030 BKN120 TNM03/1921Z TX01/2005Z
BECMG 1908/1909 4200 HZ BKN030
BECMG 1911/1912 23007KT 2500 BR
BECMG 1915/1916 32015G25KT 6000 NSW NSC
BECMG 1922/1923 32020G35KT CAVOK
BECMG 2010/2011 32015G25KT